Time;durP1;ratioP1;P1;durP2;ratioP2;P2;SDS_P1;SDS_P2;PMS_P1;PMS_P2;Temp;Humidity;BMP_temperature;BMP_pressure;BME280_temperature;BME280_humidity;BME280_pressure;Samples;Min_cycle;Max_cycle;Signal;HPM_P1;HPM_P2
2023/09/22 00:01:00;;;;;;;7.63;4.35;;;;;;;22.53;54.77;99877.44;4981459;28;20482;-34
2023/09/22 00:03:29;;;;;;;7.60;5.07;;;;;;;22.50;54.92;99884.06;4985609;28;20061;-33
2023/09/22 00:05:56;;;;;;;6.20;4.43;;;;;;;22.48;54.69;99891.56;4983839;28;20055;-34
2023/09/22 00:08:23;;;;;;;6.35;4.18;;;;;;;22.47;54.94;99884.47;4984022;28;20049;-34
2023/09/22 00:10:49;;;;;;;6.22;4.72;;;;;;;22.45;54.76;99889.28;4980520;28;20061;-34
2023/09/22 00:13:16;;;;;;;7.47;4.80;;;;;;;22.43;54.67;99888.63;4984703;28;20086;-34
2023/09/22 00:15:44;;;;;;;5.68;4.03;;;;;;;22.43;54.93;99883.22;4980586;28;20050;-33
2023/09/22 00:18:11;;;;;;;7.25;4.47;;;;;;;22.42;54.81;99878.88;4978819;28;20047;-33
2023/09/22 00:20:37;;;;;;;6.38;4.25;;;;;;;22.40;54.64;99876.38;4986989;28;20129;-34
2023/09/22 00:23:04;;;;;;;6.60;4.05;;;;;;;22.39;54.96;99871.19;4990555;28;20086;-34
2023/09/22 00:25:31;;;;;;;6.03;3.85;;;;;;;22.37;54.77;99876.78;4986933;28;20105;-33
2023/09/22 00:27:58;;;;;;;7.53;4.72;;;;;;;22.36;54.87;99863.50;4981488;28;20038;-33
2023/09/22 00:30:26;;;;;;;6.68;4.32;;;;;;;22.35;55.02;99868.09;4991209;28;20257;-34
2023/09/22 00:32:53;;;;;;;5.55;3.58;;;;;;;22.33;54.93;99864.75;4988028;28;20069;-33
2023/09/22 00:35:19;;;;;;;5.72;3.80;;;;;;;22.32;54.60;99873.88;4986419;28;20054;-34
2023/09/22 00:37:46;;;;;;;5.47;3.92;;;;;;;22.30;54.99;99877.81;4982948;28;20054;-34
2023/09/22 00:40:14;;;;;;;5.50;3.78;;;;;;;22.29;54.94;99890.50;4995268;28;20150;-34
2023/09/22 00:42:40;;;;;;;4.72;3.30;;;;;;;22.29;55.05;99900.47;4985773;28;20054;-33
2023/09/22 00:45:08;;;;;;;5.80;3.65;;;;;;;22.28;54.61;99906.91;4989707;28;20161;-34
2023/09/22 00:47:35;;;;;;;5.18;3.53;;;;;;;22.26;54.94;99912.50;4995032;28;20132;-34
2023/09/22 00:50:02;;;;;;;4.88;3.25;;;;;;;22.26;54.79;99922.47;4985126;28;20085;-33
2023/09/22 00:52:30;;;;;;;5.45;3.53;;;;;;;22.24;54.80;99908.34;4981854;28;20466;-34
2023/09/22 00:54:58;;;;;;;6.47;4.25;;;;;;;22.24;54.87;99911.06;4985156;28;20051;-34
2023/09/22 00:57:25;;;;;;;5.40;3.17;;;;;;;22.21;54.80;99898.78;4982941;28;20158;-33
2023/09/22 00:59:52;;;;;;;5.85;3.15;;;;;;;22.20;54.82;99893.59;4984136;28;20427;-34
2023/09/22 01:02:19;;;;;;;5.53;3.20;;;;;;;22.20;54.75;99897.13;4977880;28;20046;-34
2023/09/22 01:04:45;;;;;;;5.55;3.28;;;;;;;22.18;54.65;99900.00;4986459;28;20047;-33
2023/09/22 01:07:12;;;;;;;6.18;3.47;;;;;;;22.18;54.80;99915.38;4983102;28;20054;-33
2023/09/22 01:09:38;;;;;;;5.35;3.53;;;;;;;22.17;54.72;99913.72;4979515;28;20042;-34
2023/09/22 01:12:05;;;;;;;4.80;3.35;;;;;;;22.15;54.54;99910.38;4985806;28;20058;-33
2023/09/22 01:14:32;;;;;;;6.13;3.00;;;;;;;22.15;54.61;99910.38;4982227;28;20142;-34
2023/09/22 01:16:58;;;;;;;5.22;3.00;;;;;;;22.14;54.82;99908.72;4986145;28;20051;-34
2023/09/22 01:19:25;;;;;;;5.18;3.38;;;;;;;22.12;54.37;99905.38;4979657;28;20051;-33
2023/09/22 01:21:51;;;;;;;5.43;3.55;;;;;;;22.13;54.61;99907.06;4982552;28;20066;-33
2023/09/22 01:24:19;;;;;;;4.47;3.30;;;;;;;22.12;54.77;99908.06;4979412;28;20088;-33
2023/09/22 01:26:46;;;;;;;5.47;2.80;;;;;;;22.10;55.17;99905.56;4979212;28;20050;-33
2023/09/22 01:29:12;;;;;;;4.70;3.15;;;;;;;22.09;54.55;99906.59;4985062;28;20330;-34
2023/09/22 01:31:42;;;;;;;4.50;2.95;;;;;;;22.09;54.96;99903.91;4987360;28;20396;-34
2023/09/22 01:34:11;;;;;;;4.15;2.90;;;;;;;22.07;54.50;99906.00;4984062;28;20073;-34
2023/09/22 01:36:38;;;;;;;4.40;2.92;;;;;;;22.08;54.68;99906.81;4980936;28;20051;-34
2023/09/22 01:39:05;;;;;;;5.88;3.22;;;;;;;22.06;54.59;99898.91;4985185;28;20346;-35
2023/09/22 01:41:35;;;;;;;5.38;3.33;;;;;;;22.05;54.68;99901.81;4981779;28;20148;-34
2023/09/22 01:44:02;;;;;;;4.78;3.03;;;;;;;22.05;54.71;99899.94;4987619;28;20054;-34
2023/09/22 01:46:28;;;;;;;5.10;3.47;;;;;;;22.04;54.50;99897.47;4984975;28;20105;-33
2023/09/22 01:48:55;;;;;;;7.63;3.25;;;;;;;22.03;54.56;99895.78;4980642;28;20049;-33
2023/09/22 01:51:23;;;;;;;5.95;3.85;;;;;;;22.01;54.59;99885.19;4980949;28;20078;-34
2023/09/22 01:53:50;;;;;;;4.55;2.65;;;;;;;22.00;54.86;99888.94;4981899;28;20343;-33
2023/09/22 01:56:16;;;;;;;4.95;3.08;;;;;;;22.01;54.35;99892.47;4981435;28;20057;-34
2023/09/22 01:58:43;;;;;;;4.95;3.20;;;;;;;22.00;54.72;99890.81;4984941;28;20050;-33
2023/09/22 02:01:11;;;;;;;4.95;3.20;;;;;;;21.99;54.60;99889.13;4985260;28;20105;-33
2023/09/22 02:03:37;;;;;;;5.00;3.38;;;;;;;21.99;54.61;99890.00;4979631;28;20343;-33
2023/09/22 02:06:05;;;;;;;4.28;2.92;;;;;;;21.99;54.50;99886.44;4983138;28;20056;-34
2023/09/22 02:08:32;;;;;;;4.05;2.90;;;;;;;21.99;54.63;99892.69;4982479;28;20043;-33
2023/09/22 02:10:59;;;;;;;3.63;3.00;;;;;;;21.98;54.53;99887.47;4985177;28;20128;-33
2023/09/22 02:13:26;;;;;;;3.20;2.50;;;;;;;21.98;54.98;99893.69;4984964;28;20078;-34
2023/09/22 02:15:52;;;;;;;3.17;2.38;;;;;;;21.97;54.62;99883.94;4984860;28;20120;-33
2023/09/22 02:18:20;;;;;;;3.50;2.67;;;;;;;21.97;54.64;99875.84;4983384;28;20493;-33
2023/09/22 02:20:47;;;;;;;3.88;2.53;;;;;;;21.96;54.94;99876.91;4985812;28;20054;-34
2023/09/22 02:23:13;;;;;;;5.47;3.00;;;;;;;21.96;54.49;99881.47;4986079;28;20120;-34
2023/09/22 02:25:40;;;;;;;3.22;2.10;;;;;;;21.95;54.85;99877.94;4980961;28;20047;-33
2023/09/22 02:28:06;;;;;;;5.25;2.92;;;;;;;21.96;54.44;99885.00;4983402;28;20050;-33
2023/09/22 02:30:37;;;;;;;3.63;2.67;;;;;;;21.96;54.34;99887.69;4989502;28;20374;-33
2023/09/22 02:33:04;;;;;;;3.42;2.50;;;;;;;21.95;54.64;99894.13;4985914;28;20102;-34
2023/09/22 02:35:30;;;;;;;3.22;2.33;;;;;;;21.95;54.85;99891.44;4993598;28;20050;-33
2023/09/22 02:37:57;;;;;;;3.30;2.28;;;;;;;21.94;54.50;99887.88;4987443;28;20128;-33
2023/09/22 02:40:23;;;;;;;3.55;2.20;;;;;;;21.93;54.63;99888.91;4986303;28;20055;-33
2023/09/22 02:42:50;;;;;;;3.25;2.60;;;;;;;21.93;54.71;99888.09;4985167;28;20137;-33
2023/09/22 02:45:17;;;;;;;3.85;2.83;;;;;;;21.92;54.65;99886.44;4988626;28;20051;-33
2023/09/22 02:47:43;;;;;;;3.25;2.08;;;;;;;21.91;54.56;99891.00;4988982;28;20050;-33
2023/09/22 02:50:15;;;;;;;3.85;2.78;;;;;;;21.90;54.47;99889.31;4983512;28;20047;-34
2023/09/22 02:52:42;;;;;;;3.72;2.28;;;;;;;21.91;54.43;99884.78;4995185;28;20096;-33
2023/09/22 02:55:11;;;;;;;4.55;2.90;;;;;;;21.90;54.77;99885.78;4986538;28;20046;-34
2023/09/22 02:57:38;;;;;;;4.63;2.67;;;;;;;21.90;54.57;99883.09;4992078;28;20054;-33
2023/09/22 03:00:17;;;;;;;4.35;2.65;;;;;;;21.89;54.65;99889.53;4985396;28;20097;-33
2023/09/22 03:02:44;;;;;;;3.03;2.13;;;;;;;21.88;54.93;99888.69;4985990;28;20050;-33
2023/09/22 03:05:15;;;;;;;8.20;2.78;;;;;;;21.88;54.57;99887.88;4984488;28;20105;-33
2023/09/22 03:07:42;;;;;;;2.85;2.10;;;;;;;21.86;54.64;99885.34;4989619;28;20430;-34
2023/09/22 03:10:10;;;;;;;3.88;2.30;;;;;;;21.85;54.86;99883.69;4989197;28;20077;-33
2023/09/22 03:12:38;;;;;;;4.43;2.55;;;;;;;21.85;54.75;99882.88;4979112;28;20054;-33
2023/09/22 03:15:09;;;;;;;3.47;2.28;;;;;;;21.84;54.69;99875.81;4983197;28;20136;-33
2023/09/22 03:17:36;;;;;;;3.33;2.10;;;;;;;21.85;54.53;99880.16;4978941;28;20058;-34
2023/09/22 03:20:07;;;;;;;3.28;2.33;;;;;;;21.84;54.65;99881.22;4985647;28;20055;-33
2023/09/22 03:22:35;;;;;;;3.72;2.40;;;;;;;21.83;54.69;99884.91;4983116;28;20042;-33
2023/09/22 03:25:03;;;;;;;3.58;2.25;;;;;;;21.83;54.63;99880.38;4983413;28;20045;-34
2023/09/22 03:27:36;;;;;;;2.97;2.15;;;;;;;21.82;54.73;99883.25;4988349;28;20700;-33
2023/09/22 03:30:06;;;;;;;3.67;2.20;;;;;;;21.81;54.67;99882.44;4988332;28;20219;-33
2023/09/22 03:32:33;;;;;;;3.40;2.30;;;;;;;21.81;54.60;99882.44;4986574;28;20054;-34
2023/09/22 03:35:01;;;;;;;3.80;2.40;;;;;;;21.81;54.44;99881.59;4983775;28;20051;-33
2023/09/22 03:37:29;;;;;;;3.85;2.20;;;;;;;21.80;54.95;99885.34;4985103;28;20058;-34
2023/09/22 03:39:56;;;;;;;2.95;2.13;;;;;;;21.78;54.47;99882.84;4980909;28;20046;-33
2023/09/22 03:42:25;;;;;;;3.13;2.28;;;;;;;21.78;54.83;99880.13;4985344;28;20058;-33
2023/09/22 03:44:51;;;;;;;2.83;2.20;;;;;;;21.77;54.12;99878.47;4980702;28;20173;-34
2023/09/22 03:47:18;;;;;;;2.67;1.90;;;;;;;21.77;54.59;99880.34;4984500;28;20133;-33
2023/09/22 03:49:45;;;;;;;2.78;2.00;;;;;;;21.76;54.45;99878.69;4982741;28;20098;-34
2023/09/22 03:52:12;;;;;;;4.43;2.45;;;;;;;21.74;54.65;99881.56;4984604;28;20153;-33
2023/09/22 03:54:39;;;;;;;2.80;2.28;;;;;;;21.74;54.75;99880.75;4986034;28;20043;-34
2023/09/22 03:57:06;;;;;;;4.80;2.30;;;;;;;21.73;54.65;99873.69;4977573;28;20061;-33
2023/09/22 03:59:33;;;;;;;2.58;2.05;;;;;;;21.71;54.60;99876.59;4980119;28;20082;-33
2023/09/22 04:01:59;;;;;;;2.95;2.15;;;;;;;21.71;54.40;99876.59;4989124;28;20061;-34
2023/09/22 04:04:29;;;;;;;3.03;2.10;;;;;;;21.70;54.80;99869.53;4986838;28;20100;-34
2023/09/22 04:06:58;;;;;;;2.97;2.03;;;;;;;21.70;54.45;99872.22;4984933;28;20056;-34
2023/09/22 04:09:25;;;;;;;3.05;2.30;;;;;;;21.70;54.52;99872.22;4981043;28;20054;-34
2023/09/22 04:11:52;;;;;;;3.58;1.95;;;;;;;21.68;54.28;99869.75;4983093;28;20050;-34
2023/09/22 04:14:20;;;;;;;2.83;1.90;;;;;;;21.68;54.98;99874.31;4985029;28;20057;-34
2023/09/22 04:16:47;;;;;;;2.95;1.98;;;;;;;21.67;54.69;99875.34;4985156;28;20059;-33
2023/09/22 04:19:13;;;;;;;2.90;2.20;;;;;;;21.66;54.54;99879.88;4984169;28;20050;-34
2023/09/22 04:21:44;;;;;;;6.15;2.13;;;;;;;21.66;55.05;99874.47;4979705;28;20653;-33
2023/09/22 04:24:12;;;;;;;2.75;2.10;;;;;;;21.65;54.51;99875.53;4980482;28;20062;-34
2023/09/22 04:26:44;;;;;;;3.55;2.00;;;;;;;21.65;54.75;99882.78;4980327;28;20130;-33
2023/09/22 04:29:11;;;;;;;3.08;2.20;;;;;;;21.65;54.36;99886.31;4983706;28;20626;-33
2023/09/22 04:31:38;;;;;;;3.08;1.55;;;;;;;21.64;54.75;99890.06;4986015;28;20061;-33
2023/09/22 04:34:05;;;;;;;2.78;1.98;;;;;;;21.63;54.17;99891.09;4989601;28;20058;-33
2023/09/22 04:36:33;;;;;;;2.28;1.73;;;;;;;21.63;54.50;99895.66;4988381;28;20350;-33
2023/09/22 04:39:00;;;;;;;2.53;1.88;;;;;;;21.63;54.77;99911.84;4983126;28;20169;-33
2023/09/22 04:41:26;;;;;;;4.10;2.22;;;;;;;21.61;54.52;99900.41;4979724;28;20050;-34
2023/09/22 04:43:56;;;;;;;3.72;1.70;;;;;;;21.62;54.64;99904.75;4977039;28;20154;-33
2023/09/22 04:46:22;;;;;;;2.72;1.83;;;;;;;21.61;54.35;99908.50;4979975;28;20074;-33
2023/09/22 04:48:49;;;;;;;3.63;1.83;;;;;;;21.59;54.52;99903.31;4983183;28;20069;-33
2023/09/22 04:51:16;;;;;;;2.97;1.85;;;;;;;21.59;54.47;99906.00;4982854;28;20375;-34
2023/09/22 04:53:42;;;;;;;3.88;2.13;;;;;;;21.59;54.55;99908.69;4981842;28;20054;-34
2023/09/22 04:56:09;;;;;;;4.20;2.00;;;;;;;21.58;54.32;99901.63;4983019;28;20101;-33
2023/09/22 04:58:38;;;;;;;2.60;2.00;;;;;;;21.58;54.62;99901.63;4984720;28;20050;-33
2023/09/22 05:01:05;;;;;;;2.60;2.00;;;;;;;21.57;54.49;99896.44;4983785;28;20495;-33
2023/09/22 05:03:31;;;;;;;2.45;1.95;;;;;;;21.57;54.43;99899.13;4980854;28;20053;-34
2023/09/22 05:06:01;;;;;;;2.67;1.80;;;;;;;;;;4975703;28;20062;-34
2023/09/22 05:08:30;;;;;;;3.05;1.90;;;;;;;21.55;54.28;99912.84;4989135;28;20330;-34
2023/09/22 05:10:56;;;;;;;1.67;1.38;;;;;;;;;;4980065;28;20101;-33
2023/09/22 05:13:23;;;;;;;2.83;1.88;;;;;;;21.54;54.30;99907.63;4990979;28;20078;-33
2023/09/22 05:15:49;;;;;;;2.25;1.85;;;;;;;21.53;54.62;99914.88;4979928;28;20105;-34
2023/09/22 05:18:16;;;;;;;2.42;1.75;;;;;;;21.53;54.30;99920.28;4981507;28;20109;-33
2023/09/22 05:20:43;;;;;;;2.45;1.80;;;;;;;21.52;54.61;99913.22;4983025;28;20054;-34
2023/09/22 05:23:09;;;;;;;2.95;1.70;;;;;;;21.52;54.52;99920.47;4981469;28;20055;-33
2023/09/22 05:25:40;;;;;;;2.13;1.50;;;;;;;21.52;54.71;99920.47;4979370;28;20078;-33
2023/09/22 05:28:10;;;;;;;2.53;1.85;;;;;;;21.53;54.42;99935.63;4979658;28;20051;-33
2023/09/22 05:30:40;;;;;;;3.80;1.70;;;;;;;21.52;54.40;99932.09;4983759;28;20455;-34
2023/09/22 05:33:08;;;;;;;2.38;1.27;;;;;;;21.52;54.58;99932.09;4987835;28;20088;-33
2023/09/22 05:35:37;;;;;;;2.42;1.92;;;;;;;21.52;54.60;99931.28;4993454;28;20064;-34
2023/09/22 05:38:04;;;;;;;2.28;1.50;;;;;;;21.52;54.59;99926.72;4994765;28;20140;-33
2023/09/22 05:40:34;;;;;;;2.33;1.70;;;;;;;21.51;54.64;99926.88;4998173;28;20349;-33
2023/09/22 05:43:03;;;;;;;2.25;1.80;;;;;;;21.50;54.29;99928.75;4994595;28;20415;-33
2023/09/22 05:45:30;;;;;;;3.15;2.03;;;;;;;21.50;54.32;99927.94;4985651;28;20059;-34
2023/09/22 05:47:57;;;;;;;2.63;1.70;;;;;;;21.50;54.26;99934.16;4982571;28;20056;-34
2023/09/22 05:50:24;;;;;;;2.60;1.75;;;;;;;21.49;54.35;99926.28;4984880;28;20128;-34
2023/09/22 05:52:51;;;;;;;2.05;1.60;;;;;;;21.48;54.39;99938.91;4983793;28;20516;-34
2023/09/22 05:55:19;;;;;;;3.08;1.75;;;;;;;21.49;54.41;99926.28;4983218;28;20053;-34
2023/09/22 05:57:51;;;;;;;2.65;1.75;;;;;;;21.49;55.02;99937.06;4986205;28;20054;-33
2023/09/22 06:00:18;;;;;;;3.45;1.73;;;;;;;21.48;54.53;99936.22;4978683;28;20481;-34
2023/09/22 06:02:49;;;;;;;1.80;1.30;;;;;;;21.48;54.44;99936.22;4981606;28;20458;-33
2023/09/22 06:05:22;;;;;;;1.83;1.40;;;;;;;21.49;54.05;99937.06;4986354;28;20198;-33
2023/09/22 06:07:50;;;;;;;2.60;1.50;;;;;;;21.49;54.60;99942.44;4985429;28;20047;-34
2023/09/22 06:10:16;;;;;;;2.35;1.65;;;;;;;21.48;54.70;99938.09;4985523;28;20078;-33
2023/09/22 06:12:44;;;;;;;2.75;1.70;;;;;;;21.47;54.51;99945.34;4987469;28;20077;-34
2023/09/22 06:15:12;;;;;;;1.25;1.13;;;;;;;21.47;54.62;99945.34;4997447;28;20148;-33
2023/09/22 06:17:39;;;;;;;1.95;1.40;;;;;;;21.47;54.25;99939.97;4996698;28;20125;-34
2023/09/22 06:20:13;;;;;;;4.10;1.60;;;;;;;21.47;54.66;99952.59;4995459;28;20046;-33
2023/09/22 06:22:41;;;;;;;2.97;1.80;;;;;;;21.48;54.24;99951.56;4985751;28;20136;-34
2023/09/22 06:25:13;;;;;;;3.53;2.15;;;;;;;21.48;54.40;99949.72;4984662;28;20050;-33
2023/09/22 06:27:41;;;;;;;4.57;2.47;;;;;;;21.48;54.57;99960.50;4993424;28;20042;-33
2023/09/22 06:30:11;;;;;;;6.97;2.10;;;;;;;21.49;54.47;99956.75;4987711;28;20058;-34
2023/09/22 06:32:42;;;;;;;6.25;1.88;;;;;;;21.50;54.45;99954.88;4981480;28;20050;-34
2023/09/22 06:35:10;;;;;;;3.47;1.70;;;;;;;21.51;54.20;99954.72;4983610;28;20458;-33
2023/09/22 06:37:38;;;;;;;3.45;1.83;;;;;;;21.52;54.25;99963.63;4986157;28;20138;-34
2023/09/22 06:40:11;;;;;;;2.17;1.52;;;;;;;21.52;54.39;99967.16;4987738;28;20496;-33
2023/09/22 06:42:45;;;;;;;;;;;;;;;21.52;54.68;99972.53;4990861;28;20051;-34
2023/09/22 06:45:12;;;;;;;3.25;1.63;;;;;;;21.56;54.14;99972.97;4984670;28;20016;-33
2023/09/22 06:47:43;;;;;;;3.75;1.50;;;;;;;21.54;54.11;99972.34;4990608;28;20054;-33
2023/09/22 06:50:11;;;;;;;4.35;2.10;;;;;;;21.54;54.20;99983.94;4992699;28;20046;-33
2023/09/22 06:52:40;;;;;;;4.03;2.08;;;;;;;;;;4993060;28;20039;-34
2023/09/22 06:55:13;;;;;;;7.82;1.95;;;;;;;21.53;54.21;99979.59;4995710;28;20398;-33
2023/09/22 06:57:40;;;;;;;3.05;1.90;;;;;;;21.53;54.31;99982.28;4986457;28;20038;-33
2023/09/22 07:00:14;;;;;;;5.00;1.83;;;;;;;21.54;54.24;99988.50;4985884;28;20049;-33
2023/09/22 07:02:43;;;;;;;3.75;1.98;;;;;;;21.53;54.21;99990.38;4985475;28;20180;-34
2023/09/22 07:05:10;;;;;;;7.63;2.30;;;;;;;21.55;54.23;99999.13;4980290;28;20058;-34
2023/09/22 07:07:38;;;;;;;4.95;2.17;;;;;;;;;;4984423;28;20046;-34
2023/09/22 07:10:09;;;;;;;4.78;2.25;;;;;;;21.56;54.61;100011.56;4979653;28;21583;-33
2023/09/22 07:12:38;;;;;;;5.07;2.28;;;;;;;21.58;54.44;100009.50;4969744;28;20560;-33
2023/09/22 07:15:06;;;;;;;7.35;3.05;;;;;;;21.63;54.75;100015.16;4985111;28;20378;-34
2023/09/22 07:17:33;;;;;;;7.80;4.45;;;;;;;21.67;55.09;100021.81;4982214;28;20054;-33
2023/09/22 07:20:01;;;;;;;8.35;3.78;;;;;;;21.71;55.20;100014.16;4956802;28;20058;-33
2023/09/22 07:22:34;;;;;;;12.18;4.55;;;;;;;21.76;55.47;100011.69;5010942;28;20454;-33
2023/09/22 07:25:04;;;;;;;12.00;5.35;;;;;;;21.79;55.11;100013.13;4986073;28;20054;-34
2023/09/22 07:27:31;;;;;;;11.95;5.78;;;;;;;21.84;55.37;100022.31;4983779;28;20175;-35
2023/09/22 07:29:58;;;;;;;18.20;6.80;;;;;;;21.89;56.00;100019.03;4988158;28;20765;-35
2023/09/22 07:32:24;;;;;;;14.00;6.68;;;;;;;21.93;56.25;100028.38;4978638;28;20054;-34
2023/09/22 07:34:51;;;;;;;18.42;7.43;;;;;;;21.97;56.41;100031.53;4984222;28;20465;-34
2023/09/22 07:37:18;;;;;;;14.07;7.43;;;;;;;22.00;56.34;100034.66;4984956;28;20065;-35
2023/09/22 07:39:50;;;;;;;13.15;6.57;;;;;;;22.03;56.30;100045.06;4959968;28;20432;-35
2023/09/22 07:42:16;;;;;;;12.27;6.60;;;;;;;22.06;55.98;100031.16;4993537;28;20070;-34
2023/09/22 07:44:43;;;;;;;16.63;6.40;;;;;;;22.08;56.14;100037.19;4989661;28;20108;-34
2023/09/22 07:47:10;;;;;;;14.00;6.28;;;;;;;22.12;56.26;100035.75;4991514;28;20089;-34
2023/09/22 07:49:37;;;;;;;11.50;5.97;;;;;;;22.16;55.79;100041.63;4989528;28;20162;-34
2023/09/22 07:52:04;;;;;;;11.82;5.85;;;;;;;22.17;55.76;100044.09;4990944;28;20160;-33
2023/09/22 07:54:33;;;;;;;11.35;5.55;;;;;;;22.18;55.58;100037.66;4984270;28;20370;-33
2023/09/22 07:56:59;;;;;;;10.25;6.05;;;;;;;22.22;55.23;100050.78;4991447;28;20082;-33
2023/09/22 07:59:29;;;;;;;9.88;5.15;;;;;;;22.22;55.15;100050.78;4990652;28;20132;-33
2023/09/22 08:01:59;;;;;;;9.05;5.07;;;;;;;22.24;55.34;100052.25;4993314;28;20144;-34
2023/09/22 08:04:26;;;;;;;14.90;6.50;;;;;;;22.25;55.05;100053.91;4981409;28;20073;-34
2023/09/22 08:06:53;;;;;;;12.93;6.30;;;;;;;22.27;55.02;100053.69;4986766;28;20057;-33
2023/09/22 08:09:21;;;;;;;10.13;5.78;;;;;;;22.29;54.90;100057.03;4990991;28;20050;-33
2023/09/22 08:11:48;;;;;;;11.57;6.03;;;;;;;22.29;54.86;100054.34;4984443;28;20525;-33
2023/09/22 08:14:14;;;;;;;11.55;5.40;;;;;;;22.31;54.82;100061.22;5015379;28;20072;-33
2023/09/22 08:16:41;;;;;;;8.73;5.30;;;;;;;22.33;54.82;100059.13;4989956;28;20417;-34
2023/09/22 08:19:11;;;;;;;9.70;5.60;;;;;;;22.36;54.42;100068.72;4985878;28;20061;-34
2023/09/22 08:21:38;;;;;;;6.43;4.57;;;;;;;22.38;54.27;100074.72;4966610;28;20497;-34
2023/09/22 08:24:07;;;;;;;11.50;5.47;;;;;;;22.40;54.30;100083.47;4991616;28;20112;-33
2023/09/22 08:26:34;;;;;;;10.52;4.72;;;;;;;22.42;53.92;100089.50;4992100;28;20314;-34
2023/09/22 08:29:01;;;;;;;10.02;4.88;;;;;;;22.44;54.19;100092.84;4992934;28;20116;-34
2023/09/22 08:31:29;;;;;;;9.50;5.35;;;;;;;22.46;54.07;100085.34;4988775;28;20648;-35
2023/09/22 08:33:56;;;;;;;7.40;4.47;;;;;;;22.49;53.72;100090.34;4981611;28;20631;-35
2023/09/22 08:36:23;;;;;;;7.22;4.25;;;;;;;22.51;53.44;100084.75;4985210;28;20424;-34
2023/09/22 08:38:51;;;;;;;10.23;4.97;;;;;;;22.53;53.48;100093.50;4984223;28;20050;-34
2023/09/22 08:41:18;;;;;;;7.72;4.05;;;;;;;22.53;53.39;100083.53;4984096;28;20068;-34
2023/09/22 08:43:45;;;;;;;7.68;4.30;;;;;;;22.55;53.66;100099.50;4998766;28;20130;-35
2023/09/22 08:46:12;;;;;;;9.05;4.28;;;;;;;22.58;53.34;100109.91;4986890;28;20054;-34
2023/09/22 08:48:39;;;;;;;6.35;3.65;;;;;;;22.59;52.87;100107.03;4989824;28;20061;-35
2023/09/22 08:51:06;;;;;;;6.57;3.92;;;;;;;22.61;52.98;100113.06;4986536;28;20058;-34
2023/09/22 08:53:32;;;;;;;8.00;4.60;;;;;;;22.62;52.91;100111.19;4995840;28;20558;-35
2023/09/22 08:55:59;;;;;;;8.27;4.70;;;;;;;22.66;52.98;100112.44;5020009;28;20152;-35
2023/09/22 08:58:26;;;;;;;13.80;5.80;;;;;;;22.66;53.29;100118.69;4990924;28;20513;-35
2023/09/22 09:00:53;;;;;;;9.52;5.93;;;;;;;22.69;53.25;100116.63;4963357;28;20445;-35
2023/09/22 09:03:20;;;;;;;10.90;6.00;;;;;;;22.71;52.91;100115.38;5005690;28;20139;-35
2023/09/22 09:05:49;;;;;;;12.20;7.57;;;;;;;22.74;52.79;100120.38;4987763;28;20396;-35
2023/09/22 09:08:21;;;;;;;10.15;6.28;;;;;;;22.76;53.01;100115.63;4990783;28;20370;-34
2023/09/22 09:10:49;;;;;;;10.02;6.50;;;;;;;22.81;53.07;100126.63;4983454;28;20053;-32
2023/09/22 09:13:19;;;;;;;14.90;6.78;;;;;;;22.80;53.24;100124.97;4987956;28;20082;-33
2023/09/22 09:15:50;;;;;;;11.43;6.53;;;;;;;22.83;52.85;100121.84;4991261;28;20381;-33
2023/09/22 09:18:19;;;;;;;10.68;6.30;;;;;;;22.86;52.83;100118.75;4979184;28;20059;-34
2023/09/22 09:20:48;;;;;;;10.40;5.00;;;;;;;22.89;52.17;100122.94;4953640;28;20606;-32
2023/09/22 09:23:20;;;;;;;12.35;5.93;;;;;;;22.91;52.57;100120.88;5006288;28;20062;-32
2023/09/22 09:25:47;;;;;;;10.90;7.35;;;;;;;22.93;52.53;100121.50;4984586;28;20126;-33
2023/09/22 09:28:15;;;;;;;9.55;5.53;;;;;;;22.95;51.84;100138.34;4989789;28;20620;-33
2023/09/22 09:30:56;;;;;;;8.15;5.22;;;;;;;22.96;51.48;100139.19;4987610;28;20046;-33
2023/09/22 09:33:27;;;;;;;11.85;6.25;;;;;;;22.99;51.46;100134.19;4993477;28;20415;-32
2023/09/22 09:35:55;;;;;;;9.93;5.22;;;;;;;23.00;50.92;100140.47;4986851;28;20120;-33
2023/09/22 09:38:27;;;;;;;10.63;5.38;;;;;;;22.98;50.34;100140.66;4989386;28;20054;-33
2023/09/22 09:40:56;;;;;;;8.57;4.63;;;;;;;22.99;50.90;100139.59;4964197;28;20378;-33
2023/09/22 09:43:23;;;;;;;10.82;4.80;;;;;;;23.00;50.88;100133.19;5018331;28;20368;-33
2023/09/22 09:45:59;;;;;;;10.15;6.38;;;;;;;23.01;51.30;100145.66;4991147;28;20322;-32
2023/09/22 09:48:27;;;;;;;10.48;6.28;;;;;;;23.05;51.74;100137.97;4986537;28;20042;-33
2023/09/22 09:50:58;;;;;;;11.80;6.10;;;;;;;23.10;51.35;100132.78;4983469;28;20050;-34
2023/09/22 09:53:43;;;;;;;9.13;5.35;;;;;;;23.12;52.17;100136.97;4985288;28;20053;-33
2023/09/22 09:56:17;;;;;;;11.63;6.60;;;;;;;23.17;51.96;100146.31;4985442;28;20353;-33
2023/09/22 09:58:48;;;;;;;10.80;6.43;;;;;;;23.20;51.99;100135.09;4976360;28;20173;-33
2023/09/22 10:01:17;;;;;;;9.50;5.93;;;;;;;23.23;52.16;100142.78;4953155;28;20537;-33
2023/09/22 10:03:45;;;;;;;8.85;5.68;;;;;;;23.24;51.77;100145.31;5003113;28;20378;-33
2023/09/22 10:06:13;;;;;;;12.27;6.88;;;;;;;23.26;51.92;100150.50;4982766;28;20286;-33
2023/09/22 10:08:40;;;;;;;9.95;5.53;;;;;;;23.27;51.84;100149.44;4980020;28;20053;-33
2023/09/22 10:11:11;;;;;;;7.78;5.30;;;;;;;23.26;51.13;100145.91;4985875;28;20163;-33
2023/09/22 10:13:38;;;;;;;11.88;6.90;;;;;;;23.27;51.18;100141.34;4984463;28;20054;-33
2023/09/22 10:16:08;;;;;;;8.25;4.75;;;;;;;23.26;51.16;100150.50;4986607;28;20050;-33
2023/09/22 10:18:45;;;;;;;8.25;4.97;;;;;;;23.24;49.98;100148.00;4984729;28;20136;-33
2023/09/22 10:21:41;;;;;;;9.27;5.40;;;;;;;23.24;51.26;100147.19;4949178;28;20066;-33
2023/09/22 10:24:23;;;;;;;11.75;7.32;;;;;;;23.26;51.29;100154.03;4992928;28;20058;-33
2023/09/22 10:26:53;;;;;;;12.90;7.97;;;;;;;23.29;51.70;100150.91;4985690;28;20236;-33
2023/09/22 10:29:33;;;;;;;11.00;6.55;;;;;;;23.32;51.61;100149.69;4989387;28;20544;-34
2023/09/22 10:32:14;;;;;;;10.05;6.03;;;;;;;23.35;51.24;100151.94;4986364;28;20159;-33
2023/09/22 10:34:54;;;;;;;11.98;6.80;;;;;;;23.38;51.13;100151.56;4984054;28;20046;-33
2023/09/22 10:37:28;;;;;;;12.10;7.20;;;;;;;23.41;51.17;100145.72;4989441;28;20056;-33
2023/09/22 10:39:56;;;;;;;10.60;6.47;;;;;;;23.43;51.21;100157.16;4986041;28;20462;-33
2023/09/22 10:42:25;;;;;;;9.50;5.88;;;;;;;23.46;51.13;100158.63;4995297;28;20057;-33
2023/09/22 10:45:03;;;;;;;12.35;7.10;;;;;;;23.48;51.62;100161.94;4991512;28;20421;-33
2023/09/22 10:47:42;;;;;;;11.30;7.10;;;;;;;23.49;50.89;100156.34;4987881;28;20411;-33
2023/09/22 10:50:15;;;;;;;14.02;8.30;;;;;;;23.49;50.94;100159.06;4980806;28;20050;-33
2023/09/22 10:52:50;;;;;;;10.90;6.13;;;;;;;23.52;51.08;100155.13;4990481;28;20046;-33
2023/09/22 10:55:34;;;;;;;11.27;6.80;;;;;;;23.52;50.97;100147.84;4984473;28;20058;-33
2023/09/22 10:58:04;;;;;;;10.80;5.93;;;;;;;23.53;50.35;100162.19;4989531;28;20438;-33
2023/09/22 11:00:39;;;;;;;10.77;6.60;;;;;;;23.53;50.19;100163.03;4968044;28;20133;-33
2023/09/22 11:03:14;;;;;;;12.13;7.80;;;;;;;23.56;50.53;100156.38;5025091;28;20140;-33
2023/09/22 11:05:43;;;;;;;11.23;7.47;;;;;;;23.58;50.99;100157.81;4990590;28;20441;-33
2023/09/22 11:08:12;;;;;;;12.73;8.00;;;;;;;23.58;51.06;100159.69;4991798;28;20058;-33
2023/09/22 11:10:41;;;;;;;10.77;6.35;;;;;;;23.59;50.85;100166.75;4993889;28;20038;-33
2023/09/22 11:13:08;;;;;;;16.70;10.32;;;;;;;23.58;50.82;100167.81;4992405;28;20274;-33
2023/09/22 11:15:46;;;;;;;13.15;7.78;;;;;;;23.57;50.45;100163.44;4988011;28;20050;-33
2023/09/22 11:18:35;;;;;;;16.40;9.50;;;;;;;23.58;50.37;100165.94;4989616;28;20058;-33
2023/09/22 11:21:05;;;;;;;14.32;8.60;;;;;;;23.59;51.03;100169.47;4953813;28;20580;-34
2023/09/22 11:23:35;;;;;;;14.20;8.68;;;;;;;23.60;50.18;100169.28;5000572;28;20153;-34
2023/09/22 11:26:10;;;;;;;13.68;8.68;;;;;;;23.60;50.77;100163.88;4987686;28;20451;-34
2023/09/22 11:28:44;;;;;;;16.55;10.13;;;;;;;23.60;50.71;100169.28;4988115;28;21261;-34
2023/09/22 11:31:19;;;;;;;15.52;9.18;;;;;;;23.60;50.45;100166.56;4992584;28;20328;-34
2023/09/22 11:33:59;;;;;;;19.20;10.27;;;;;;;23.61;50.27;100179.03;4990375;28;20438;-34
2023/09/22 11:36:26;;;;;;;19.25;10.98;;;;;;;23.65;50.88;100184.88;4991843;28;20436;-33